Time;durP1;ratioP1;P1;durP2;ratioP2;P2;SDS_P1;SDS_P2;PMS_P1;PMS_P2;Temp;Humidity;BMP_temperature;BMP_pressure;BME280_temperature;BME280_humidity;BME280_pressure;Samples;Min_cycle;Max_cycle;Signal;HPM_P1;HPM_P2
2023/10/24 00:01:31;;;;;;;20.48;8.85;;;10.00;99.90;;;;;;5040588;28;20121;-81
2023/10/24 00:03:57;;;;;;;18.90;9.38;;;10.00;99.90;;;;;;5036065;28;20071;-82
2023/10/24 00:06:23;;;;;;;16.15;9.13;;;9.90;99.90;;;;;;5025745;28;20115;-81
2023/10/24 00:08:48;;;;;;;18.00;9.20;;;9.90;99.90;;;;;;5066553;28;20175;-81
2023/10/24 00:11:14;;;;;;;19.20;10.02;;;10.00;99.90;;;;;;5036284;28;20044;-82
2023/10/24 00:13:40;;;;;;;16.08;8.68;;;10.00;99.90;;;;;;5027333;28;20467;-82
2023/10/24 00:16:06;;;;;;;20.00;10.48;;;10.00;99.90;;;;;;5035753;28;20048;-81
2023/10/24 00:18:31;;;;;;;16.88;8.88;;;10.00;99.90;;;;;;5028074;28;20060;-82
2023/10/24 00:20:58;;;;;;;18.55;9.82;;;10.00;99.90;;;;;;5018008;28;20038;-82
2023/10/24 00:23:24;;;;;;;16.08;9.13;;;10.00;99.90;;;;;;5032472;28;20033;-81
2023/10/24 00:25:51;;;;;;;18.88;10.00;;;10.00;99.90;;;;;;5028660;28;20033;-81
2023/10/24 00:28:16;;;;;;;15.18;9.48;;;10.00;99.90;;;;;;5025452;28;20068;-82
2023/10/24 00:30:42;;;;;;;15.60;9.18;;;10.00;99.90;;;;;;5035567;28;20134;-82
2023/10/24 00:33:08;;;;;;;21.23;9.43;;;10.00;99.90;;;;;;5025712;28;20041;-82
2023/10/24 00:35:34;;;;;;;21.25;10.35;;;10.00;99.90;;;;;;5038698;28;20033;-81
2023/10/24 00:38:00;;;;;;;17.75;9.32;;;10.00;99.90;;;;;;5031332;28;20041;-82
2023/10/24 00:40:26;;;;;;;18.20;9.10;;;10.00;99.90;;;;;;5040328;28;20044;-81
2023/10/24 00:42:52;;;;;;;20.52;9.45;;;10.00;99.90;;;;;;5039260;28;20040;-82
2023/10/24 00:45:18;;;;;;;20.40;10.20;;;10.00;99.90;;;;;;5025960;28;20039;-82
2023/10/24 00:47:44;;;;;;;18.92;9.32;;;10.00;99.90;;;;;;5029781;28;20033;-81
2023/10/24 00:50:12;;;;;;;15.93;8.77;;;10.00;99.90;;;;;;5038038;28;20033;-80
2023/10/24 00:52:39;;;;;;;18.63;9.63;;;10.00;99.90;;;;;;5032761;28;20034;-81
2023/10/24 00:55:07;;;;;;;16.88;9.30;;;10.00;99.90;;;;;;5014848;28;20041;-82
2023/10/24 00:57:34;;;;;;;17.45;9.45;;;10.00;99.90;;;;;;5029189;28;20408;-82
2023/10/24 01:00:00;;;;;;;16.35;9.55;;;10.00;99.90;;;;;;5038937;28;20105;-82
2023/10/24 01:02:26;;;;;;;18.52;9.23;;;10.00;99.90;;;;;;5028575;28;20041;-83
2023/10/24 01:04:56;;;;;;;21.95;9.75;;;10.00;99.90;;;;;;5033702;28;20029;-83
2023/10/24 01:07:22;;;;;;;20.17;10.18;;;10.00;99.90;;;;;;5022460;28;20041;-84
2023/10/24 01:09:47;;;;;;;17.20;9.30;;;10.00;99.90;;;;;;5024962;28;20100;-84
2023/10/24 01:12:13;;;;;;;19.23;10.80;;;10.00;99.90;;;;;;5030097;28;20037;-84
2023/10/24 01:14:40;;;;;;;17.40;9.23;;;10.00;99.90;;;;;;5043642;28;20099;-83
2023/10/24 01:17:13;;;;;;;18.73;9.63;;;10.10;99.90;;;;;;5018591;28;20077;-84
2023/10/24 01:19:39;;;;;;;18.50;9.85;;;10.00;99.90;;;;;;5041021;28;20076;-83
2023/10/24 01:22:05;;;;;;;20.92;10.07;;;10.00;99.90;;;;;;5031265;28;20040;-84
2023/10/24 01:24:31;;;;;;;18.95;9.82;;;10.00;99.90;;;;;;5020462;28;20629;-84
2023/10/24 01:26:57;;;;;;;19.85;10.43;;;10.00;99.90;;;;;;5024477;28;20048;-83
2023/10/24 01:29:23;;;;;;;18.80;9.00;;;10.00;99.90;;;;;;5040897;28;20051;-82
2023/10/24 01:31:49;;;;;;;20.83;9.90;;;10.00;99.90;;;;;;5034596;28;20049;-83
2023/10/24 01:34:14;;;;;;;20.55;9.45;;;10.10;99.90;;;;;;5026946;28;20056;-83
2023/10/24 01:36:40;;;;;;;18.48;9.82;;;10.20;99.90;;;;;;5023703;28;20071;-83
2023/10/24 01:39:07;;;;;;;17.92;8.77;;;10.10;99.90;;;;;;5029108;28;20508;-83
2023/10/24 01:41:33;;;;;;;16.33;8.57;;;10.10;99.90;;;;;;5042989;28;20470;-83
2023/10/24 01:43:59;;;;;;;18.65;9.50;;;10.20;99.90;;;;;;5044621;28;20152;-83
2023/10/24 01:46:24;;;;;;;19.23;10.35;;;10.10;99.90;;;;;;5045511;28;20119;-84
2023/10/24 01:48:50;;;;;;;19.98;9.75;;;10.10;99.90;;;;;;5027468;28;20041;-84
2023/10/24 01:51:15;;;;;;;19.13;9.15;;;10.20;99.90;;;;;;5022049;28;20037;-83
2023/10/24 01:53:41;;;;;;;17.20;9.32;;;10.20;99.90;;;;;;5037330;28;20041;-83
2023/10/24 01:56:09;;;;;;;16.08;8.52;;;10.30;99.90;;;;;;5032775;28;20068;-83
2023/10/24 01:58:35;;;;;;;16.88;8.60;;;10.20;99.90;;;;;;5031886;28;20053;-84
2023/10/24 02:01:00;;;;;;;16.65;8.55;;;10.20;99.90;;;;;;5025140;28;20072;-84
2023/10/24 02:03:26;;;;;;;18.95;8.38;;;10.20;99.90;;;;;;5028868;28;20112;-84
2023/10/24 02:05:52;;;;;;;15.02;8.77;;;10.20;99.90;;;;;;5021919;28;20037;-84
2023/10/24 02:08:17;;;;;;;15.75;9.00;;;10.30;99.90;;;;;;5014381;28;20585;-85
2023/10/24 02:10:43;;;;;;;16.55;8.57;;;10.30;99.90;;;;;;5037976;28;20045;-84
2023/10/24 02:13:08;;;;;;;17.08;8.63;;;10.30;99.90;;;;;;5017166;28;20055;-84
2023/10/24 02:15:37;;;;;;;15.77;8.50;;;10.30;99.90;;;;;;5032574;28;20645;-84
2023/10/24 02:18:03;;;;;;;15.98;8.80;;;10.30;99.90;;;;;;5042156;28;20075;-84
2023/10/24 02:20:28;;;;;;;15.82;8.25;;;10.40;99.90;;;;;;5044272;28;20133;-85
2023/10/24 02:22:54;;;;;;;15.82;8.38;;;10.40;99.90;;;;;;5025261;28;20486;-84
2023/10/24 02:25:19;;;;;;;15.45;8.32;;;10.40;99.90;;;;;;5011469;28;20590;-84
2023/10/24 02:27:45;;;;;;;18.95;8.52;;;10.40;99.90;;;;;;5042031;28;20094;-84
2023/10/24 02:30:11;;;;;;;14.98;7.90;;;10.40;99.90;;;;;;5041829;28;20065;-84
2023/10/24 02:32:37;;;;;;;17.08;8.88;;;10.40;99.90;;;;;;5040249;28;20490;-84
2023/10/24 02:35:03;;;;;;;15.88;8.15;;;10.50;99.90;;;;;;5042586;28;20037;-85
2023/10/24 02:37:29;;;;;;;18.05;8.60;;;10.50;99.90;;;;;;5043257;28;20462;-83
2023/10/24 02:39:55;;;;;;;15.98;8.20;;;10.50;99.90;;;;;;5028272;28;20178;-85
2023/10/24 02:42:20;;;;;;;16.90;8.68;;;10.50;99.90;;;;;;5043883;28;20052;-84
2023/10/24 02:44:49;;;;;;;17.63;8.60;;;10.50;99.90;;;;;;5022857;28;20036;-86
2023/10/24 02:47:16;;;;;;;17.80;8.07;;;10.50;99.90;;;;;;5023247;28;20048;-84
2023/10/24 02:49:41;;;;;;;14.93;7.93;;;10.60;99.90;;;;;;5017479;28;20507;-84
2023/10/24 02:52:07;;;;;;;12.55;7.93;;;10.50;99.90;;;;;;5039520;28;20051;-85
2023/10/24 02:54:33;;;;;;;19.25;8.98;;;10.60;99.90;;;;;;5028212;28;20072;-85
2023/10/24 02:56:59;;;;;;;15.50;7.55;;;10.60;99.90;;;;;;5040230;28;20045;-84
2023/10/24 02:59:24;;;;;;;16.35;7.75;;;10.60;99.90;;;;;;5044158;28;20114;-85
2023/10/24 03:01:50;;;;;;;14.50;7.70;;;10.70;99.90;;;;;;5016633;28;20072;-85
2023/10/24 03:04:15;;;;;;;13.40;7.22;;;10.70;99.90;;;;;;5042437;28;20037;-85
2023/10/24 03:06:41;;;;;;;16.60;8.65;;;10.60;99.90;;;;;;5037822;28;20553;-85
2023/10/24 03:09:07;;;;;;;16.50;8.25;;;10.70;99.90;;;;;;5041349;28;20037;-85
2023/10/24 03:11:33;;;;;;;16.15;8.85;;;10.70;99.90;;;;;;5022349;28;20047;-83
2023/10/24 03:13:58;;;;;;;18.10;8.73;;;10.70;99.90;;;;;;5039676;28;20124;-84
2023/10/24 03:16:24;;;;;;;19.60;8.98;;;10.70;99.90;;;;;;5025306;28;20402;-83
2023/10/24 03:18:49;;;;;;;14.98;9.15;;;10.70;99.90;;;;;;5017513;28;20076;-83
2023/10/24 03:21:16;;;;;;;16.80;8.98;;;10.80;99.90;;;;;;5040055;28;20454;-85
2023/10/24 03:23:44;;;;;;;17.17;9.13;;;10.80;99.90;;;;;;5038593;28;20675;-85
2023/10/24 03:26:10;;;;;;;17.75;8.95;;;10.80;99.90;;;;;;5016272;28;20062;-84
2023/10/24 03:28:36;;;;;;;20.90;10.02;;;10.80;99.90;;;;;;5031653;28;20048;-84
2023/10/24 03:31:03;;;;;;;17.63;9.40;;;10.80;99.90;;;;;;5023469;28;20056;-85
2023/10/24 03:33:30;;;;;;;18.80;10.32;;;10.80;99.90;;;;;;5023937;28;20049;-85
2023/10/24 03:35:57;;;;;;;18.95;9.63;;;10.90;99.90;;;;;;5059472;28;20087;-86
2023/10/24 03:38:23;;;;;;;17.35;9.65;;;10.70;99.90;;;;;;5036242;28;20500;-86
2023/10/24 03:40:49;;;;;;;18.80;9.55;;;10.80;99.90;;;;;;5048561;28;20049;-86
2023/10/24 03:43:16;;;;;;;17.90;9.98;;;10.90;99.90;;;;;;5037909;28;20070;-86
2023/10/24 03:45:42;;;;;;;18.05;9.18;;;10.80;99.90;;;;;;5031418;28;20344;-86
2023/10/24 03:48:07;;;;;;;17.40;10.18;;;10.80;99.90;;;;;;5044226;28;20123;-86
2023/10/24 03:50:37;;;;;;;20.73;9.30;;;10.90;99.90;;;;;;5019834;28;20687;-85
2023/10/24 03:53:06;;;;;;;20.52;9.95;;;10.90;99.90;;;;;;5034538;28;20123;-84
2023/10/24 03:55:33;;;;;;;20.88;9.32;;;10.90;99.90;;;;;;5030631;28;20138;-86
2023/10/24 03:57:59;;;;;;;17.70;9.30;;;10.90;99.90;;;;;;5054909;28;20265;-86
2023/10/24 04:00:25;;;;;;;22.38;10.20;;;11.00;99.90;;;;;;5046775;28;20119;-86
2023/10/24 04:02:52;;;;;;;20.45;8.90;;;10.90;99.90;;;;;;5032933;28;20254;-85
2023/10/24 04:05:18;;;;;;;20.10;9.45;;;10.90;99.90;;;;;;5026332;28;20105;-86
2023/10/24 04:07:44;;;;;;;19.45;10.55;;;11.00;99.90;;;;;;5047816;28;20033;-85
2023/10/24 04:10:11;;;;;;;16.55;9.77;;;11.00;99.90;;;;;;5046841;28;20052;-87
2023/10/24 04:12:37;;;;;;;19.17;10.43;;;10.90;99.90;;;;;;5047579;28;20041;-86
2023/10/24 04:15:03;;;;;;;21.52;10.75;;;11.00;99.90;;;;;;5027727;28;20047;-87
2023/10/24 04:17:29;;;;;;;21.67;11.10;;;11.00;99.90;;;;;;5043188;28;20037;-86
2023/10/24 04:19:55;;;;;;;20.98;10.90;;;11.00;99.90;;;;;;5045069;28;20089;-86
2023/10/24 04:22:21;;;;;;;18.83;11.60;;;11.10;99.90;;;;;;5028207;28;20036;-86
2023/10/24 04:24:46;;;;;;;20.33;11.50;;;11.00;99.90;;;;;;5033382;28;20033;-86
2023/10/24 04:27:12;;;;;;;21.55;11.63;;;11.10;99.90;;;;;;5031396;28;20036;-86
2023/10/24 04:29:38;;;;;;;20.10;11.05;;;11.10;99.90;;;;;;5035509;28;20037;-87
2023/10/24 04:32:04;;;;;;;21.38;11.85;;;11.10;99.90;;;;;;5055211;28;20045;-86
2023/10/24 04:34:29;;;;;;;19.48;11.50;;;11.20;99.90;;;;;;5033886;28;20079;-86
2023/10/24 04:36:55;;;;;;;18.80;11.40;;;11.10;99.90;;;;;;5032539;28;20037;-86
2023/10/24 04:39:21;;;;;;;19.38;11.15;;;11.30;99.90;;;;;;5026928;28;20415;-86
2023/10/24 04:41:47;;;;;;;18.77;11.52;;;11.10;99.90;;;;;;5031160;28;20450;-87
2023/10/24 04:44:13;;;;;;;20.80;11.30;;;11.20;99.90;;;;;;5036632;28;20052;-86
2023/10/24 04:46:39;;;;;;;19.52;11.90;;;11.20;99.90;;;;;;5029774;28;20080;-87
2023/10/24 04:49:05;;;;;;;21.63;10.57;;;11.20;99.90;;;;;;5027961;28;20045;-86
2023/10/24 04:51:31;;;;;;;22.63;11.63;;;11.10;99.90;;;;;;5024888;28;20090;-87
2023/10/24 04:53:57;;;;;;;21.33;11.25;;;11.20;99.90;;;;;;5047958;28;20073;-88
2023/10/24 04:56:22;;;;;;;19.70;10.95;;;11.20;99.90;;;;;;5041778;28;20503;-88
2023/10/24 04:58:49;;;;;;;17.20;11.13;;;11.30;99.90;;;;;;5030803;28;20041;-87
2023/10/24 05:01:15;;;;;;;22.88;11.23;;;11.20;99.90;;;;;;5055250;28;20052;-86
2023/10/24 05:03:40;;;;;;;17.92;10.75;;;11.20;99.90;;;;;;5027170;28;20235;-87
2023/10/24 05:06:06;;;;;;;19.85;12.00;;;11.20;99.90;;;;;;5021790;28;20041;-89
2023/10/24 05:08:32;;;;;;;18.63;12.63;;;11.20;99.90;;;;;;5043055;28;20071;-89
2023/10/24 05:10:57;;;;;;;20.08;10.88;;;11.20;99.90;;;;;;5025076;28;20633;-88
2023/10/24 05:13:23;;;;;;;19.33;10.95;;;11.20;99.90;;;;;;5044752;28;20037;-88
2023/10/24 05:15:48;;;;;;;19.00;11.05;;;11.20;99.90;;;;;;5022479;28;20064;-88
2023/10/24 05:18:15;;;;;;;15.20;9.88;;;11.20;99.90;;;;;;5020580;28;20090;-88
2023/10/24 05:20:41;;;;;;;21.85;10.20;;;11.20;99.90;;;;;;5026135;28;20033;-89
2023/10/24 05:23:07;;;;;;;14.63;10.13;;;11.20;99.90;;;;;;5043078;28;20062;-88
2023/10/24 05:25:33;;;;;;;18.70;10.07;;;11.20;99.90;;;;;;5019364;28;20614;-88
2023/10/24 05:27:58;;;;;;;15.25;9.48;;;11.20;99.90;;;;;;5029929;28;20374;-88
2023/10/24 05:30:24;;;;;;;16.23;9.68;;;11.20;99.90;;;;;;5016808;28;20375;-88
2023/10/24 05:32:50;;;;;;;21.13;10.77;;;11.20;99.90;;;;;;5041854;28;20036;-88
2023/10/24 05:35:15;;;;;;;17.13;10.07;;;11.20;99.90;;;;;;5034724;28;20040;-88
2023/10/24 05:37:41;;;;;;;15.07;9.18;;;11.10;99.90;;;;;;5045944;28;20040;-87
2023/10/24 05:40:07;;;;;;;15.80;9.32;;;11.10;99.90;;;;;;5029342;28;20059;-87
2023/10/24 05:42:33;;;;;;;14.88;9.02;;;11.00;99.90;;;;;;5034445;28;20041;-88
2023/10/24 05:44:59;;;;;;;15.70;9.13;;;11.00;99.90;;;;;;5023788;28;20071;-88
2023/10/24 05:47:24;;;;;;;17.00;9.30;;;11.00;99.90;;;;;;5048955;28;20033;-88
2023/10/24 05:49:50;;;;;;;12.65;8.77;;;11.00;99.90;;;;;;5029088;28;20593;-88
2023/10/24 05:52:16;;;;;;;13.65;8.95;;;11.00;99.90;;;;;;5034585;28;20058;-87
2023/10/24 05:54:42;;;;;;;16.83;9.90;;;11.00;99.90;;;;;;5040047;28;20120;-88
2023/10/24 05:57:08;;;;;;;15.85;9.05;;;11.10;99.90;;;;;;5055595;28;20587;-88
2023/10/24 05:59:33;;;;;;;13.15;8.13;;;11.00;99.90;;;;;;5025899;28;20037;-88
2023/10/24 06:02:00;;;;;;;15.43;8.77;;;11.00;99.90;;;;;;5042153;28;20045;-84
2023/10/24 06:04:26;;;;;;;13.23;8.18;;;11.10;99.90;;;;;;5015376;28;20029;-83
2023/10/24 06:06:51;;;;;;;11.80;7.80;;;11.00;99.90;;;;;;5044200;28;20037;-82
2023/10/24 06:09:18;;;;;;;11.55;7.85;;;10.90;99.90;;;;;;5022594;28;20053;-84
2023/10/24 06:11:43;;;;;;;16.08;7.75;;;11.00;99.90;;;;;;5041477;28;20045;-84
2023/10/24 06:14:09;;;;;;;14.35;7.95;;;11.10;99.90;;;;;;5027901;28;20063;-84
2023/10/24 06:16:35;;;;;;;12.43;7.47;;;11.10;99.90;;;;;;5046389;28;20090;-83
2023/10/24 06:19:00;;;;;;;14.18;7.28;;;11.00;99.90;;;;;;5033657;28;20064;-84
2023/10/24 06:21:26;;;;;;;11.95;7.50;;;11.00;99.90;;;;;;5026319;28;20040;-83
2023/10/24 06:23:53;;;;;;;12.80;7.70;;;11.10;99.90;;;;;;5025613;28;20029;-84
2023/10/24 06:26:19;;;;;;;13.80;7.15;;;11.10;99.90;;;;;;5045859;28;20040;-84
2023/10/24 06:28:45;;;;;;;12.63;7.45;;;11.00;99.90;;;;;;5029708;28;20055;-85
2023/10/24 06:31:11;;;;;;;11.35;7.18;;;11.10;99.90;;;;;;5031852;28;20079;-84
2023/10/24 06:33:37;;;;;;;13.32;7.75;;;11.00;99.90;;;;;;5032550;28;20045;-85
2023/10/24 06:36:04;;;;;;;14.90;7.50;;;11.00;99.90;;;;;;5015573;28;20041;-84
2023/10/24 06:38:30;;;;;;;12.95;7.35;;;11.10;99.90;;;;;;5043267;28;20095;-84
2023/10/24 06:40:56;;;;;;;11.25;7.13;;;11.20;99.90;;;;;;5044260;28;20124;-84
2023/10/24 06:43:22;;;;;;;10.18;7.07;;;11.00;99.90;;;;;;5039948;28;20124;-85
2023/10/24 06:45:48;;;;;;;13.00;7.80;;;11.10;99.90;;;;;;5023123;28;20087;-84
2023/10/24 06:48:14;;;;;;;10.50;7.15;;;11.10;99.90;;;;;;5035484;28;20030;-84
2023/10/24 06:50:40;;;;;;;14.60;7.30;;;11.00;99.90;;;;;;5023563;28;20038;-84
2023/10/24 06:53:06;;;;;;;10.80;7.35;;;11.10;99.90;;;;;;5039148;28;20041;-84
2023/10/24 06:55:32;;;;;;;10.90;7.03;;;11.10;99.90;;;;;;5022573;28;20649;-85
2023/10/24 06:57:58;;;;;;;11.00;7.45;;;11.00;99.90;;;;;;5027238;28;20123;-85
2023/10/24 07:00:25;;;;;;;13.68;6.68;;;11.10;99.90;;;;;;5044317;28;20120;-84
2023/10/24 07:02:51;;;;;;;12.07;7.10;;;11.10;99.90;;;;;;5013013;28;20132;-84
2023/10/24 07:05:18;;;;;;;9.90;6.47;;;11.10;99.90;;;;;;5028396;28;20045;-85
2023/10/24 07:07:43;;;;;;;9.18;6.32;;;11.10;99.90;;;;;;5021576;28;20068;-84
2023/10/24 07:10:09;;;;;;;11.05;6.82;;;11.10;99.90;;;;;;5038409;28;20033;-85
2023/10/24 07:12:35;;;;;;;10.32;6.30;;;11.10;99.90;;;;;;5024779;28;20129;-84
2023/10/24 07:15:03;;;;;;;10.93;6.18;;;11.10;99.90;;;;;;5021691;28;20036;-85
2023/10/24 07:17:29;;;;;;;12.50;6.32;;;11.00;99.90;;;;;;5041637;28;20648;-85
2023/10/24 07:19:56;;;;;;;11.13;6.78;;;11.10;99.90;;;;;;5027529;28;20524;-84
2023/10/24 07:22:21;;;;;;;11.48;6.78;;;11.10;99.90;;;;;;5032458;28;20033;-84
2023/10/24 07:24:47;;;;;;;11.45;6.85;;;11.20;99.90;;;;;;5025934;28;20091;-85
2023/10/24 07:27:13;;;;;;;11.63;6.93;;;11.10;99.90;;;;;;5026787;28;20044;-84
2023/10/24 07:29:39;;;;;;;12.90;6.30;;;11.10;99.90;;;;;;5026230;28;20037;-85
2023/10/24 07:32:05;;;;;;;13.50;6.38;;;11.20;99.90;;;;;;5031146;28;20047;-85
2023/10/24 07:34:34;;;;;;;10.55;6.70;;;11.20;99.90;;;;;;5039539;28;20555;-84
2023/10/24 07:37:01;;;;;;;9.93;5.93;;;11.20;99.90;;;;;;5032331;28;20078;-85
2023/10/24 07:39:27;;;;;;;9.75;6.65;;;11.20;99.90;;;;;;5041195;28;20044;-84
2023/10/24 07:41:52;;;;;;;10.77;7.25;;;11.20;99.90;;;;;;5043828;28;20037;-84
2023/10/24 07:44:18;;;;;;;9.93;6.28;;;11.20;99.90;;;;;;5026086;28;20037;-84
2023/10/24 07:46:44;;;;;;;11.90;7.13;;;11.30;99.90;;;;;;5044103;28;20040;-84
2023/10/24 07:49:10;;;;;;;17.42;8.13;;;11.40;99.90;;;;;;5026011;28;20033;-84
2023/10/24 07:51:36;;;;;;;12.10;7.25;;;11.30;99.90;;;;;;5032121;28;20038;-84
2023/10/24 07:54:02;;;;;;;13.20;7.00;;;11.30;99.90;;;;;;5028877;28;20110;-84
2023/10/24 07:56:28;;;;;;;12.38;7.20;;;11.40;99.90;;;;;;5026494;28;20044;-84
2023/10/24 07:58:54;;;;;;;13.07;6.75;;;11.30;99.90;;;;;;5037111;28;20103;-84
2023/10/24 08:01:20;;;;;;;15.18;6.22;;;11.40;99.90;;;;;;5052876;28;20411;-84
2023/10/24 08:03:46;;;;;;;14.85;6.82;;;11.40;99.90;;;;;;5040943;28;20044;-84
2023/10/24 08:06:12;;;;;;;10.15;6.65;;;11.30;99.90;;;;;;5041617;28;20029;-84
2023/10/24 08:08:39;;;;;;;15.75;6.70;;;11.30;99.90;;;;;;5040481;28;20045;-84
2023/10/24 08:11:05;;;;;;;12.23;6.47;;;11.40;99.90;;;;;;5027454;28;20047;-84
2023/10/24 08:13:31;;;;;;;11.38;6.78;;;11.30;99.90;;;;;;5041870;28;20041;-84
2023/10/24 08:15:58;;;;;;;11.75;6.60;;;11.20;99.90;;;;;;5025891;28;20051;-85
2023/10/24 08:18:25;;;;;;;11.18;6.70;;;11.20;99.90;;;;;;5023656;28;20160;-85
2023/10/24 08:20:51;;;;;;;11.27;6.43;;;11.30;99.90;;;;;;5037044;28;20402;-85
2023/10/24 08:23:16;;;;;;;10.98;6.78;;;11.30;99.90;;;;;;5021585;28;20029;-84
2023/10/24 08:25:42;;;;;;;12.55;6.63;;;11.30;99.90;;;;;;5043977;28;20033;-85
2023/10/24 08:28:08;;;;;;;12.27;6.65;;;11.30;99.90;;;;;;5059661;28;20036;-85
2023/10/24 08:30:34;;;;;;;11.80;6.90;;;11.30;99.90;;;;;;5023706;28;20045;-84
2023/10/24 08:33:00;;;;;;;14.02;6.43;;;11.30;99.90;;;;;;5025826;28;20880;-85
2023/10/24 08:35:26;;;;;;;13.60;7.22;;;11.30;99.90;;;;;;5042178;28;20170;-84
2023/10/24 08:37:52;;;;;;;12.88;7.82;;;11.30;99.90;;;;;;5042106;28;20094;-85
2023/10/24 08:40:18;;;;;;;13.25;7.07;;;11.30;99.90;;;;;;5043088;28;20061;-85
2023/10/24 08:42:44;;;;;;;12.68;6.82;;;11.30;99.90;;;;;;5028153;28;20045;-85
2023/10/24 08:45:11;;;;;;;13.52;7.28;;;11.30;99.90;;;;;;5039970;28;20037;-85
2023/10/24 08:47:37;;;;;;;11.52;7.07;;;11.30;99.90;;;;;;5020062;28;20037;-84
2023/10/24 08:50:03;;;;;;;13.88;6.88;;;11.30;99.90;;;;;;5025296;28;20045;-84
2023/10/24 08:52:30;;;;;;;14.07;6.75;;;11.40;99.90;;;;;;5043488;28;20036;-85
2023/10/24 08:54:58;;;;;;;11.32;6.65;;;11.40;99.90;;;;;;5043326;28;20148;-85
2023/10/24 08:57:30;;;;;;;13.80;7.53;;;11.40;99.90;;;;;;5040664;28;20077;-85
2023/10/24 08:59:57;;;;;;;13.05;7.78;;;11.50;99.90;;;;;;5042325;28;20045;-83
2023/10/24 09:02:23;;;;;;;12.82;7.68;;;11.50;99.90;;;;;;5040945;28;20427;-85
2023/10/24 09:04:52;;;;;;;14.52;7.55;;;11.50;99.90;;;;;;5027106;28;20064;-85
2023/10/24 09:07:17;;;;;;;14.90;7.03;;;11.40;99.90;;;;;;5040247;28;20041;-84
2023/10/24 09:09:43;;;;;;;12.88;7.57;;;11.40;99.90;;;;;;5025994;28;20128;-84
2023/10/24 09:12:14;;;;;;;13.65;7.22;;;11.50;99.90;;;;;;5028028;28;20063;-84
2023/10/24 09:14:44;;;;;;;11.93;7.30;;;11.50;99.90;;;;;;5022888;28;20094;-84
2023/10/24 09:17:12;;;;;;;11.60;7.20;;;11.40;99.90;;;;;;5028805;28;20150;-84
2023/10/24 09:19:42;;;;;;;13.15;7.57;;;11.40;99.90;;;;;;5027280;28;20044;-84
2023/10/24 09:22:08;;;;;;;22.23;7.50;;;11.40;99.90;;;;;;5029510;28;20087;-85
2023/10/24 09:24:35;;;;;;;11.07;6.72;;;11.40;99.90;;;;;;5021079;28;20033;-85
2023/10/24 09:27:01;;;;;;;12.93;6.97;;;11.40;99.90;;;;;;5046469;28;20041;-84
2023/10/24 09:29:27;;;;;;;14.00;7.78;;;11.40;99.90;;;;;;5048928;28;20120;-83
2023/10/24 09:31:57;;;;;;;12.05;7.18;;;11.40;99.90;;;;;;5022103;28;20080;-84
2023/10/24 09:34:23;;;;;;;12.30;7.45;;;11.40;99.90;;;;;;5032067;28;20073;-84
2023/10/24 09:36:49;;;;;;;12.23;7.55;;;11.40;99.90;;;;;;5034294;28;20056;-85
2023/10/24 09:39:15;;;;;;;12.80;7.82;;;11.40;99.90;;;;;;5047484;28;20477;-84
2023/10/24 09:41:42;;;;;;;12.05;7.22;;;11.40;99.90;;;;;;5027648;28;20033;-85
2023/10/24 09:44:08;;;;;;;12.18;7.10;;;11.40;99.90;;;;;;5037844;28;20025;-84
2023/10/24 09:46:35;;;;;;;13.20;6.78;;;11.50;99.90;;;;;;5043300;28;20479;-84
2023/10/24 09:49:02;;;;;;;13.93;7.35;;;11.40;99.90;;;;;;5046823;28;20083;-85
2023/10/24 09:51:28;;;;;;;11.80;6.97;;;11.40;99.90;;;;;;5045125;28;20041;-83
2023/10/24 09:53:54;;;;;;;11.55;7.05;;;11.40;99.90;;;;;;5025356;28;20048;-83
2023/10/24 09:56:21;;;;;;;13.48;7.82;;;11.50;99.90;;;;;;5025401;28;20084;-83
2023/10/24 09:58:47;;;;;;;11.80;7.10;;;11.50;99.90;;;;;;5039260;28;20037;-83
2023/10/24 10:01:12;;;;;;;11.30;7.15;;;11.50;99.90;;;;;;5029214;28;20535;-82
2023/10/24 10:03:38;;;;;;;12.57;7.55;;;11.50;99.90;;;;;;5041649;28;20030;-83
2023/10/24 10:06:09;;;;;;;9.80;6.68;;;11.40;99.90;;;;;;5031895;28;20050;-83
2023/10/24 10:08:37;;;;;;;12.60;6.57;;;11.40;99.90;;;;;;5022734;28;20128;-83
2023/10/24 10:11:05;;;;;;;11.38;6.90;;;11.40;99.90;;;;;;5023703;28;20041;-82
2023/10/24 10:13:53;;;;;;;10.93;6.78;;;11.40;99.90;;;;;;5030452;28;20044;-83
2023/10/24 10:16:28;;;;;;;10.00;6.43;;;11.40;99.90;;;;;;5062664;28;20084;-83
2023/10/24 10:19:10;;;;;;;11.18;6.78;;;11.30;99.90;;;;;;5037365;28;20447;-82
2023/10/24 10:21:41;;;;;;;12.48;7.13;;;11.30;99.90;;;;;;5027672;28;20514;-84
2023/10/24 10:24:19;;;;;;;12.43;6.40;;;11.40;99.90;;;;;;5028727;28;20037;-83
2023/10/24 10:26:57;;;;;;;10.95;6.60;;;11.40;99.90;;;;;;5040453;28;20068;-83
2023/10/24 10:29:43;;;;;;;12.00;6.82;;;11.40;99.90;;;;;;5041856;28;20056;-84
2023/10/24 10:32:28;;;;;;;;;;;11.50;99.90;;;;;;5044614;28;20132;-84
2023/10/24 10:34:54;;;;;;;11.98;6.30;;;11.40;99.90;;;;;;5032451;28;20448;-83
2023/10/24 10:37:20;;;;;;;13.52;7.18;;;11.50;99.90;;;;;;5053410;28;20032;-83
2023/10/24 10:40:14;;;;;;;10.27;6.10;;;11.50;99.90;;;;;;5042957;28;20123;-83
2023/10/24 10:42:49;;;;;;;10.80;6.93;;;11.60;99.90;;;;;;5041420;28;20036;-81
2023/10/24 10:45:31;;;;;;;11.30;6.88;;;11.60;99.90;;;;;;5042370;28;20056;-81
2023/10/24 10:47:58;;;;;;;11.68;6.60;;;11.70;99.90;;;;;;5020366;28;20037;-81
2023/10/24 10:50:28;;;;;;;9.98;6.15;;;11.80;99.90;;;;;;5024319;28;20033;-81
2023/10/24 10:53:21;;;;;;;11.63;6.35;;;11.80;99.90;;;;;;5014618;28;20506;-81
2023/10/24 10:56:07;;;;;;;9.40;6.53;;;11.90;99.90;;;;;;5036711;28;20080;-81
2023/10/24 10:58:47;;;;;;;11.63;6.53;;;11.90;99.90;;;;;;5037477;28;20090;-81
2023/10/24 11:01:36;;;;;;;10.73;6.80;;;12.00;99.90;;;;;;5034606;28;20037;-81
2023/10/24 11:04:11;;;;;;;11.95;8.18;;;12.00;99.90;;;;;;5038799;28;20170;-81
2023/10/24 11:06:41;;;;;;;11.68;7.00;;;12.00;99.90;;;;;;5025644;28;20121;-81
2023/10/24 11:09:13;;;;;;;12.13;7.15;;;12.10;99.90;;;;;;5025111;28;20119;-84
2023/10/24 11:11:39;;;;;;;9.57;6.32;;;12.20;99.90;;;;;;5039127;28;20036;-85
2023/10/24 11:14:20;;;;;;;11.02;6.97;;;12.30;99.90;;;;;;5042538;28;20060;-85
2023/10/24 11:16:49;;;;;;;10.32;6.55;;;12.30;99.90;;;;;;5025729;28;20127;-85
2023/10/24 11:19:20;;;;;;;11.32;6.63;;;12.20;99.90;;;;;;5034599;28;20145;-85
2023/10/24 11:21:50;;;;;;;9.95;6.45;;;12.20;99.90;;;;;;5044749;28;20077;-84
2023/10/24 11:24:20;;;;;;;10.27;6.32;;;12.20;99.90;;;;;;5038599;28;20112;-84
2023/10/24 11:26:47;;;;;;;9.52;6.05;;;12.20;99.90;;;;;;5041939;28;20044;-85
2023/10/24 11:29:13;;;;;;;9.50;6.45;;;12.20;99.90;;;;;;5039623;28;20045;-84
2023/10/24 11:31:41;;;;;;;9.40;6.32;;;12.20;99.90;;;;;;5037708;28;20033;-84
2023/10/24 11:34:07;;;;;;;10.63;6.28;;;12.20;99.90;;;;;;5014098;28;20116;-84
2023/10/24 11:36:33;;;;;;;11.52;6.55;;;12.20;99.90;;;;;;5037037;28;20124;-85
2023/10/24 11:39:04;;;;;;;10.07;6.40;;;12.30;99.90;;;;;;5040033;28;20076;-83
2023/10/24 11:41:29;;;;;;;11.48;7.07;;;12.30;99.90;;;;;;5013241;28;20672;-84
2023/10/24 11:43:55;;;;;;;9.63;6.32;;;12.40;99.90;;;;;;5055000;28;20124;-84
2023/10/24 11:46:21;;;;;;;9.82;6.20;;;12.40;99.90;;;;;;5028435;28;20082;-84
2023/10/24 11:48:46;;;;;;;11.10;6.80;;;12.40;99.90;;;;;;5030263;28;20407;-84
2023/10/24 11:51:12;;;;;;;9.80;6.72;;;12.30;99.90;;;;;;5025129;28;20045;-84
2023/10/24 11:53:38;;;;;;;9.20;6.32;;;12.30;99.90;;;;;;5030092;28;21166;-84
2023/10/24 11:56:05;;;;;;;10.73;6.82;;;12.30;99.90;;;;;;5025239;28;20132;-84
2023/10/24 11:58:34;;;;;;;9.77;6.60;;;12.30;99.90;;;;;;5025817;28;20048;-84
2023/10/24 12:01:01;;;;;;;10.15;6.53;;;12.30;99.90;;;;;;5048916;28;20048;-85
2023/10/24 12:03:48;;;;;;;11.60;6.95;;;12.30;99.90;;;;;;5032425;28;20108;-84
2023/10/24 12:06:18;;;;;;;10.30;6.63;;;12.40;99.90;;;;;;5032057;28;20032;-84
2023/10/24 12:08:44;;;;;;;11.80;7.57;;;12.50;99.90;;;;;;5044027;28;20040;-84
2023/10/24 12:11:10;;;;;;;10.85;7.57;;;12.70;99.90;;;;;;5041888;28;21702;-84
2023/10/24 12:13:36;;;;;;;9.23;6.65;;;12.90;99.90;;;;;;5040163;28;20037;-83
2023/10/24 12:16:02;;;;;;;11.30;7.40;;;13.20;99.90;;;;;;5038176;28;20487;-83
2023/10/24 12:18:29;;;;;;;10.18;7.28;;;13.40;99.90;;;;;;5031453;28;20037;-83
2023/10/24 12:20:55;;;;;;;10.90;6.63;;;13.50;99.90;;;;;;5029720;28;20049;-83
2023/10/24 12:23:23;;;;;;;10.32;6.65;;;13.50;99.90;;;;;;5024172;28;20056;-83
2023/10/24 12:25:50;;;;;;;9.75;6.95;;;13.40;99.90;;;;;;5045061;28;20049;-83
2023/10/24 12:28:16;;;;;;;9.52;6.68;;;13.30;99.90;;;;;;5022113;28;20061;-83
2023/10/24 12:30:41;;;;;;;9.73;7.30;;;13.20;99.90;;;;;;5046648;28;20084;-84
2023/10/24 12:33:07;;;;;;;9.25;6.00;;;13.10;99.90;;;;;;5024067;28;20458;-83
2023/10/24 12:35:32;;;;;;;10.15;6.97;;;13.00;99.90;;;;;;5013654;28;20072;-84